Time;durP1;ratioP1;P1;durP2;ratioP2;P2;SDS_P1;SDS_P2;PMS_P1;PMS_P2;Temp;Humidity;BMP_temperature;BMP_pressure;BME280_temperature;BME280_humidity;BME280_pressure;Samples;Min_cycle;Max_cycle;Signal;HPM_P1;HPM_P2
2022/04/11 00:01:03;;;;;;;2.50;2.20;;;;;;;3.92;80.60;96868.69;5093375;28;20552;-55
2022/04/11 00:03:30;;;;;;;2.40;2.07;;;;;;;3.95;80.96;96865.03;5092989;28;20221;-57
2022/04/11 00:05:57;;;;;;;2.50;2.30;;;;;;;3.96;80.96;96870.19;5093063;28;20226;-55
2022/04/11 00:08:24;;;;;;;2.60;2.40;;;;;;;3.95;81.62;96876.34;5092939;28;20204;-55
2022/04/11 00:10:51;;;;;;;2.10;1.90;;;;;;;4.00;81.39;96861.16;5093100;28;20214;-57
2022/04/11 00:13:22;;;;;;;2.33;2.03;;;;;;;3.99;81.94;96867.38;5092931;28;20213;-54
2022/04/11 00:15:49;;;;;;;2.20;2.10;;;;;;;4.00;81.63;96862.97;5093243;28;20198;-54
2022/04/11 00:18:16;;;;;;;2.30;2.20;;;;;;;3.91;83.18;96872.22;5093298;28;20205;-56
2022/04/11 00:20:43;;;;;;;2.30;2.10;;;;;;;3.92;82.79;96867.84;5095153;28;20688;-57
2022/04/11 00:23:10;;;;;;;2.73;2.20;;;;;;;3.91;82.66;96872.22;5094518;28;20198;-58
2022/04/11 00:25:37;;;;;;;2.50;2.30;;;;;;;3.97;82.15;96877.06;5094177;28;20646;-56
2022/04/11 00:28:04;;;;;;;3.07;2.40;;;;;;;4.00;81.76;96876.88;5094263;28;20212;-56
2022/04/11 00:30:33;;;;;;;2.40;2.20;;;;;;;3.98;81.90;96864.84;5096698;28;20204;-55
2022/04/11 00:33:00;;;;;;;2.40;2.20;;;;;;;4.01;82.62;96862.03;5095407;28;20217;-54
2022/04/11 00:35:26;;;;;;;2.63;2.30;;;;;;;3.96;83.07;96858.88;5096124;28;20209;-55
2022/04/11 00:37:54;;;;;;;2.70;2.37;;;;;;;3.95;82.97;96851.94;5099769;28;20201;-55
2022/04/11 00:40:21;;;;;;;2.40;2.20;;;;;;;4.03;82.16;96854.09;5104657;28;20225;-59
2022/04/11 00:42:50;;;;;;;2.90;2.50;;;;;;;4.02;81.99;96850.63;5109782;28;20198;-55
2022/04/11 00:45:16;;;;;;;2.50;2.30;;;;;;;3.99;81.46;96843.81;5102097;28;20202;-55
2022/04/11 00:47:45;;;;;;;2.50;2.30;;;;;;;4.00;82.42;96847.28;5104665;28;20208;-56
2022/04/11 00:50:15;;;;;;;2.93;2.33;;;;;;;3.99;82.42;96842.97;5093501;28;20220;-55
2022/04/11 00:52:44;;;;;;;2.67;2.47;;;;;;;3.99;82.66;96843.81;5093416;28;20227;-56
2022/04/11 00:55:13;;;;;;;2.30;2.10;;;;;;;3.95;82.83;96842.31;5092025;28;20585;-56
2022/04/11 00:57:42;;;;;;;2.47;2.30;;;;;;;3.91;83.57;96843.47;5092076;28;20190;-56
2022/04/11 01:00:10;;;;;;;3.20;2.90;;;;;;;3.95;82.92;96842.31;5092196;28;20309;-57
2022/04/11 01:02:36;;;;;;;2.93;2.43;;;;;;;3.93;82.06;96838.94;5092511;28;20244;-54
2022/04/11 01:05:08;;;;;;;2.83;2.63;;;;;;;3.99;81.21;96842.97;5092309;28;20213;-55
2022/04/11 01:07:35;;;;;;;2.70;2.50;;;;;;;4.04;81.18;96845.31;5092010;28;20218;-55
2022/04/11 01:10:02;;;;;;;2.93;2.63;;;;;;;3.99;81.85;96837.75;5080984;28;20208;-56
2022/04/11 01:12:29;;;;;;;2.90;2.20;;;;;;;4.07;81.82;96835.47;5093305;28;20201;-54
2022/04/11 01:14:55;;;;;;;2.43;2.27;;;;;;;4.00;82.66;96837.63;5092055;28;20221;-56
2022/04/11 01:17:32;;;;;;;2.60;2.43;;;;;;;3.95;83.19;96829.25;5092204;28;20266;-57
2022/04/11 01:19:58;;;;;;;2.60;2.40;;;;;;;3.92;82.41;96821.59;5092201;28;20248;-56
2022/04/11 01:22:26;;;;;;;3.03;2.80;;;;;;;3.84;82.99;96812.56;5092435;28;20205;-55
2022/04/11 01:24:53;;;;;;;2.80;2.60;;;;;;;3.84;82.67;96810.78;5096665;28;20215;-56
2022/04/11 01:27:19;;;;;;;3.50;2.90;;;;;;;3.79;82.88;96812.03;5102705;28;20197;-56
2022/04/11 01:29:45;;;;;;;3.07;2.80;;;;;;;3.79;82.30;96812.84;5098634;28;20208;-55
2022/04/11 01:32:12;;;;;;;3.47;3.17;;;;;;;3.72;83.70;96818.56;5093737;28;20211;-56
2022/04/11 01:34:39;;;;;;;3.80;2.80;;;;;;;3.75;82.95;96819.22;5101265;28;20204;-56
2022/04/11 01:37:05;;;;;;;2.93;2.70;;;;;;;3.67;82.26;96815.41;5093727;28;20205;-55
2022/04/11 01:39:33;;;;;;;2.80;2.60;;;;;;;3.70;82.21;96805.59;5092527;28;20237;-56
2022/04/11 01:42:01;;;;;;;4.03;3.40;;;;;;;3.64;83.35;96815.59;5092401;28;20208;-55
2022/04/11 01:44:27;;;;;;;2.87;2.67;;;;;;;3.65;81.83;96805.03;5092848;28;20545;-56
2022/04/11 01:46:53;;;;;;;3.10;2.73;;;;;;;3.75;81.80;96806.16;5091441;28;20220;-56
2022/04/11 01:49:20;;;;;;;3.40;3.10;;;;;;;3.72;82.59;96806.31;5091031;28;20213;-53
2022/04/11 01:51:46;;;;;;;5.17;3.37;;;;;;;3.65;83.62;96804.22;5091462;28;20204;-53
2022/04/11 01:54:13;;;;;;;3.27;2.90;;;;;;;3.76;82.49;96815.66;5091953;28;20208;-54
2022/04/11 01:56:40;;;;;;;3.00;2.80;;;;;;;3.74;82.29;96804.47;5098783;28;20237;-54
2022/04/11 01:59:07;;;;;;;3.67;3.00;;;;;;;3.70;83.24;96800.34;5115149;28;20209;-54
2022/04/11 02:01:34;;;;;;;3.53;3.13;;;;;;;3.76;82.58;96792.13;5115833;28;20220;-53
2022/04/11 02:04:00;;;;;;;3.30;3.00;;;;;;;3.76;82.25;96792.13;5091925;28;20213;-52
2022/04/11 02:06:27;;;;;;;3.70;2.90;;;;;;;3.74;82.69;96780.91;5091521;28;20258;-53
2022/04/11 02:08:53;;;;;;;2.83;2.60;;;;;;;3.71;84.12;96782.91;5091844;28;20205;-52
2022/04/11 02:11:20;;;;;;;3.20;2.90;;;;;;;3.72;83.52;96776.72;5091464;28;20270;-56
2022/04/11 02:13:48;;;;;;;2.93;2.73;;;;;;;3.75;83.37;96771.31;5090993;28;20626;-55
2022/04/11 02:16:14;;;;;;;2.97;2.77;;;;;;;3.66;84.61;96764.88;5091272;28;20568;-57
2022/04/11 02:18:41;;;;;;;3.43;3.13;;;;;;;3.64;84.28;96761.53;5090664;28;20212;-57
2022/04/11 02:21:08;;;;;;;3.10;2.77;;;;;;;3.65;83.76;96763.19;5090657;28;20223;-55
2022/04/11 02:23:35;;;;;;;4.20;2.63;;;;;;;3.68;83.67;96749.94;5091111;28;20283;-57
2022/04/11 02:26:02;;;;;;;2.83;2.63;;;;;;;3.72;83.64;96746.16;5091436;28;20215;-56
2022/04/11 02:28:34;;;;;;;3.30;2.83;;;;;;;3.71;83.87;96739.28;5091063;28;20638;-57
2022/04/11 02:31:02;;;;;;;2.83;2.63;;;;;;;3.68;84.66;96738.63;5090521;28;20649;-58
2022/04/11 02:33:28;;;;;;;2.70;2.50;;;;;;;3.67;84.23;96727.34;5091174;28;20215;-56
2022/04/11 02:35:55;;;;;;;2.60;2.40;;;;;;;3.66;85.52;96720.41;5091013;28;20209;-58
2022/04/11 02:38:22;;;;;;;2.60;2.40;;;;;;;3.61;86.51;96709.44;5092904;28;20514;-57
2022/04/11 02:40:49;;;;;;;2.43;2.23;;;;;;;3.69;85.32;96709.75;5094374;28;20236;-57
2022/04/11 02:43:15;;;;;;;3.07;2.70;;;;;;;3.70;85.47;96706.22;5095132;28;20576;-58
2022/04/11 02:45:42;;;;;;;2.40;2.30;;;;;;;3.74;85.53;96707.69;5094533;28;20204;-58
2022/04/11 02:48:09;;;;;;;3.57;2.40;;;;;;;3.75;84.72;96708.53;5094863;28;20620;-57
2022/04/11 02:50:36;;;;;;;2.77;2.47;;;;;;;3.73;84.71;96702.53;5094170;28;20204;-57
2022/04/11 02:53:02;;;;;;;2.57;2.30;;;;;;;3.79;84.00;96697.75;5094869;28;20213;-57
2022/04/11 02:55:29;;;;;;;2.60;2.37;;;;;;;3.79;84.05;96695.13;5094729;28;20237;-57
2022/04/11 02:58:00;;;;;;;2.30;2.10;;;;;;;3.74;83.65;96693.78;5094140;28;20206;-56
2022/04/11 03:00:27;;;;;;;2.70;2.43;;;;;;;3.67;83.84;96693.34;5094656;28;20215;-56
2022/04/11 03:02:55;;;;;;;3.03;2.50;;;;;;;3.68;84.07;96689.78;5113053;28;20209;-56
2022/04/11 03:05:23;;;;;;;3.20;2.90;;;;;;;3.70;84.03;96689.69;5119180;28;20181;-55
2022/04/11 03:07:49;;;;;;;2.70;2.50;;;;;;;3.69;83.79;96681.00;5119442;28;20215;-56
2022/04/11 03:10:15;;;;;;;2.20;2.10;;;;;;;3.65;84.88;96676.91;5110853;28;20273;-56
2022/04/11 03:12:42;;;;;;;3.17;2.37;;;;;;;3.75;84.99;96671.91;5105569;28;20303;-58
2022/04/11 03:15:10;;;;;;;2.60;2.10;;;;;;;3.70;85.68;96669.59;5097534;28;20205;-60
2022/04/11 03:17:36;;;;;;;2.33;2.23;;;;;;;3.72;85.38;96667.72;5096012;28;20227;-59
2022/04/11 03:20:06;;;;;;;2.10;1.90;;;;;;;3.66;85.52;96669.88;5095069;28;20233;-60
2022/04/11 03:22:34;;;;;;;2.10;2.00;;;;;;;3.66;84.36;96669.88;5095310;28;20204;-61
2022/04/11 03:25:00;;;;;;;2.40;2.20;;;;;;;3.70;85.00;96674.00;5095614;28;20206;-61
2022/04/11 03:27:27;;;;;;;2.53;2.33;;;;;;;3.70;84.87;96672.22;5095633;28;20217;-60
2022/04/11 03:29:54;;;;;;;1.93;1.83;;;;;;;3.58;84.61;96662.53;5094459;28;20205;-60
2022/04/11 03:32:21;;;;;;;2.03;1.93;;;;;;;3.60;85.51;96662.47;5095228;28;20220;-60
2022/04/11 03:34:50;;;;;;;2.20;2.10;;;;;;;3.52;85.54;96665.56;5095702;28;20209;-60
2022/04/11 03:37:17;;;;;;;2.23;2.10;;;;;;;3.54;85.31;96663.72;5095943;28;20673;-60
2022/04/11 03:39:45;;;;;;;3.07;2.47;;;;;;;3.50;84.53;96663.06;5096874;28;20217;-60
2022/04/11 03:42:14;;;;;;;2.57;2.47;;;;;;;3.46;85.10;96661.59;5095048;28;20209;-60
2022/04/11 03:44:42;;;;;;;11.03;9.37;;;;;;;3.40;83.77;96664.56;5096524;28;20205;-60
2022/04/11 03:47:09;;;;;;;3.60;3.30;;;;;;;3.39;84.54;96664.69;5094355;28;20220;-60
2022/04/11 03:49:35;;;;;;;3.13;2.80;;;;;;;3.36;83.93;96655.28;5093368;28;20575;-60
2022/04/11 03:52:02;;;;;;;3.27;2.97;;;;;;;3.40;83.57;96655.91;5094406;28;20201;-60
2022/04/11 03:54:28;;;;;;;2.83;2.63;;;;;;;3.37;82.66;96654.31;5093184;28;20706;-60
2022/04/11 03:56:58;;;;;;;2.80;2.60;;;;;;;3.34;83.76;96654.53;5092738;28;20567;-60
2022/04/11 03:59:25;;;;;;;3.10;2.90;;;;;;;3.27;83.24;96649.78;5093586;28;20222;-60
2022/04/11 04:01:52;;;;;;;3.43;2.70;;;;;;;3.36;82.47;96641.38;5092959;28;20591;-60
2022/04/11 04:04:18;;;;;;;3.27;2.97;;;;;;;3.33;83.00;96646.78;5093199;28;20211;-61
2022/04/11 04:06:45;;;;;;;2.73;2.53;;;;;;;3.29;82.73;96642.69;5092424;28;20209;-59
2022/04/11 04:09:11;;;;;;;2.90;2.63;;;;;;;3.20;81.97;96644.13;5093073;28;20208;-61
2022/04/11 04:11:37;;;;;;;2.83;2.63;;;;;;;3.19;82.41;96647.66;5092172;28;20196;-61
2022/04/11 04:14:07;;;;;;;3.00;2.80;;;;;;;3.20;82.59;96644.13;5092530;28;20586;-60
2022/04/11 04:16:33;;;;;;;3.37;3.03;;;;;;;3.13;81.95;96657.66;5092662;28;20212;-60
2022/04/11 04:18:59;;;;;;;3.00;2.80;;;;;;;3.07;82.91;96658.06;5092092;28;20217;-59
2022/04/11 04:21:27;;;;;;;3.83;2.90;;;;;;;3.05;82.03;96654.72;5093084;28;20232;-60
2022/04/11 04:23:53;;;;;;;2.93;2.73;;;;;;;2.99;82.57;96656.78;5092994;28;20219;-60
2022/04/11 04:26:20;;;;;;;3.20;2.93;;;;;;;2.94;82.49;96648.38;5092773;28;20546;-59
2022/04/11 04:28:49;;;;;;;3.40;3.10;;;;;;;2.78;83.96;96646.81;5093031;28;20208;-61
2022/04/11 04:31:19;;;;;;;3.10;2.90;;;;;;;2.77;83.29;96651.22;5092717;28;20216;-61
2022/04/11 04:33:45;;;;;;;3.60;3.30;;;;;;;2.68;83.48;96650.94;5092724;28;20264;-61
2022/04/11 04:36:12;;;;;;;3.10;2.90;;;;;;;2.67;84.52;96652.72;5092775;28;20209;-60
2022/04/11 04:38:41;;;;;;;3.10;2.90;;;;;;;2.69;84.03;96656.09;5092459;28;20527;-60
2022/04/11 04:41:09;;;;;;;3.80;3.50;;;;;;;2.71;83.48;96650.75;5092710;28;20223;-58
2022/04/11 04:43:35;;;;;;;3.80;3.10;;;;;;;2.61;83.64;96653.09;5092540;28;20636;-60
2022/04/11 04:46:02;;;;;;;3.10;2.80;;;;;;;2.64;84.07;96650.31;5092198;28;20207;-60
2022/04/11 04:48:30;;;;;;;4.03;3.73;;;;;;;2.58;84.19;96653.28;5091381;28;20632;-61
2022/04/11 04:50:57;;;;;;;3.70;3.40;;;;;;;2.64;83.96;96658.13;5091904;28;20199;-59
2022/04/11 04:53:26;;;;;;;5.97;3.13;;;;;;;2.65;83.90;96659.81;5091690;28;20214;-60
2022/04/11 04:55:54;;;;;;;3.07;2.87;;;;;;;2.69;84.31;96657.84;5090920;28;20219;-60
2022/04/11 04:58:21;;;;;;;3.77;3.47;;;;;;;2.65;83.91;96659.81;5091202;28;20207;-60
2022/04/11 05:00:47;;;;;;;3.80;3.50;;;;;;;2.71;84.40;96671.63;5090509;28;20220;-61
2022/04/11 05:03:14;;;;;;;3.53;3.30;;;;;;;2.75;84.75;96668.75;5091912;28;20212;-61
2022/04/11 05:05:41;;;;;;;3.87;3.53;;;;;;;2.82;84.37;96669.22;5091517;28;20632;-59
2022/04/11 05:08:08;;;;;;;3.13;2.97;;;;;;;2.70;85.48;96673.41;5092504;28;20195;-60
2022/04/11 05:10:35;;;;;;;3.83;3.50;;;;;;;2.74;85.35;96672.28;5092761;28;20211;-59
2022/04/11 05:13:01;;;;;;;4.20;3.80;;;;;;;2.82;84.82;96669.22;5094394;28;20211;-60
2022/04/11 05:15:29;;;;;;;4.20;3.57;;;;;;;2.83;84.75;96674.34;5101470;28;21309;-60
2022/04/11 05:17:55;;;;;;;4.17;3.60;;;;;;;2.86;84.96;96679.38;5101124;28;20204;-60
2022/04/11 05:20:22;;;;;;;3.70;3.40;;;;;;;2.95;85.02;96676.19;5095767;28;20200;-60
2022/04/11 05:22:50;;;;;;;4.13;3.67;;;;;;;2.95;85.52;96676.19;5092013;28;20200;-61
2022/04/11 05:25:16;;;;;;;3.80;3.50;;;;;;;2.85;86.39;96676.84;5094527;28;20201;-60
2022/04/11 05:27:43;;;;;;;3.80;3.43;;;;;;;2.81;86.44;96681.44;5116995;28;20221;-61
2022/04/11 05:30:10;;;;;;;3.80;3.50;;;;;;;2.96;85.87;96684.84;5115279;28;20190;-61
2022/04/11 05:32:37;;;;;;;5.47;3.50;;;;;;;3.07;85.33;96689.41;5108720;28;20198;-61
2022/04/11 05:35:05;;;;;;;3.83;3.53;;;;;;;3.21;85.25;96697.22;5093005;28;20203;-61
2022/04/11 05:37:32;;;;;;;3.73;3.43;;;;;;;3.38;84.69;96700.44;5092012;28;20223;-59
2022/04/11 05:40:00;;;;;;;3.90;3.60;;;;;;;3.38;84.77;96705.66;5091009;28;20300;-60
2022/04/11 05:42:27;;;;;;;4.20;3.63;;;;;;;3.50;84.85;96710.13;5091465;28;20233;-60
2022/04/11 05:44:53;;;;;;;4.30;4.00;;;;;;;3.81;84.25;96711.59;5090894;28;20212;-59
2022/04/11 05:47:20;;;;;;;4.17;3.77;;;;;;;4.66;82.14;96729.41;5091629;28;20204;-59
2022/04/11 05:49:47;;;;;;;5.17;3.80;;;;;;;5.77;75.48;96724.13;5091744;28;20202;-60
2022/04/11 05:52:15;;;;;;;4.50;4.10;;;;;;;7.05;68.11;96723.19;5091776;28;20194;-61
2022/04/11 05:54:42;;;;;;;4.10;3.70;;;;;;;8.00;65.05;96731.28;5091733;28;20290;-61
2022/04/11 05:57:10;;;;;;;3.30;3.10;;;;;;;8.78;59.95;96737.03;5090068;28;20547;-60
2022/04/11 05:59:37;;;;;;;3.33;3.03;;;;;;;9.38;58.28;96732.72;5091497;28;20198;-61
2022/04/11 06:02:04;;;;;;;3.57;3.27;;;;;;;10.65;53.96;96734.44;5091758;28;20223;-61
2022/04/11 06:04:30;;;;;;;3.53;3.23;;;;;;;11.43;51.44;96733.25;5091436;28;20205;-61
2022/04/11 06:06:57;;;;;;;3.20;2.90;;;;;;;11.58;48.31;96729.13;5090997;28;20220;-59
2022/04/11 06:09:24;;;;;;;3.40;3.10;;;;;;;11.31;51.57;96729.94;5091539;28;20205;-61
2022/04/11 06:11:51;;;;;;;3.50;2.93;;;;;;;12.21;48.57;96729.19;5092610;28;20208;-60
2022/04/11 06:14:19;;;;;;;3.30;2.63;;;;;;;12.65;46.31;96728.25;5094940;28;20209;-60
2022/04/11 06:16:45;;;;;;;3.27;2.90;;;;;;;12.74;45.45;96722.03;5095231;28;20267;-61
2022/04/11 06:19:12;;;;;;;3.50;3.20;;;;;;;12.50;46.81;96729.81;5094769;28;20210;-60
2022/04/11 06:21:38;;;;;;;3.27;3.07;;;;;;;12.27;46.91;96734.72;5096004;28;20229;-61
2022/04/11 06:24:06;;;;;;;3.73;3.30;;;;;;;12.45;46.47;96727.59;5097592;28;20212;-61
2022/04/11 06:26:32;;;;;;;3.40;3.10;;;;;;;12.82;45.96;96730.03;5097070;28;20213;-61
2022/04/11 06:28:58;;;;;;;4.07;3.13;;;;;;;12.43;46.87;96734.06;5097152;28;20208;-60
2022/04/11 06:31:26;;;;;;;3.20;3.00;;;;;;;12.55;46.28;96729.31;5097375;28;20193;-60
2022/04/11 06:33:53;;;;;;;3.47;2.87;;;;;;;12.51;45.99;96726.16;5095072;28;20209;-59
2022/04/11 06:36:19;;;;;;;3.53;3.23;;;;;;;12.69;45.19;96718.16;5095388;28;20598;-61
2022/04/11 06:38:46;;;;;;;3.17;2.87;;;;;;;12.16;46.11;96719.03;5095232;28;20194;-60
2022/04/11 06:41:14;;;;;;;3.53;3.10;;;;;;;11.43;50.51;96720.00;5094683;28;20573;-61
2022/04/11 06:43:40;;;;;;;3.50;3.17;;;;;;;11.86;47.93;96724.69;5094747;28;20209;-60
2022/04/11 06:46:07;;;;;;;3.30;2.80;;;;;;;11.39;49.05;96721.28;5094252;28;20237;-60
2022/04/11 06:48:34;;;;;;;4.10;3.10;;;;;;;11.43;50.01;96718.19;5094238;28;20645;-61
2022/04/11 06:51:01;;;;;;;3.13;2.93;;;;;;;11.16;49.21;96710.22;5094357;28;20213;-60
2022/04/11 06:53:28;;;;;;;3.67;3.23;;;;;;;11.79;48.52;96713.03;5095094;28;20523;-61
2022/04/11 06:55:54;;;;;;;6.00;3.50;;;;;;;12.11;49.07;96712.53;5094228;28;20256;-61
2022/04/11 06:58:21;;;;;;;3.23;3.03;;;;;;;11.93;48.07;96716.00;5094136;28;20217;-61
2022/04/11 07:00:47;;;;;;;3.37;3.13;;;;;;;11.89;47.81;96703.19;5094281;28;20198;-60
2022/04/11 07:03:14;;;;;;;3.57;3.27;;;;;;;11.50;50.68;96694.59;5094285;28;20205;-61
2022/04/11 07:05:42;;;;;;;3.40;3.10;;;;;;;11.71;49.44;96695.22;5093947;28;20212;-61
2022/04/11 07:08:09;;;;;;;3.53;3.23;;;;;;;11.75;48.67;96701.88;5093888;28;20259;-61
2022/04/11 07:10:37;;;;;;;3.77;3.47;;;;;;;11.88;49.25;96698.88;5094732;28;20240;-61
2022/04/11 07:13:04;;;;;;;3.30;3.00;;;;;;;11.61;49.18;96694.41;5093941;28;20272;-61
2022/04/11 07:15:32;;;;;;;4.00;3.70;;;;;;;12.06;49.47;96694.41;5093696;28;20244;-60
2022/04/11 07:17:58;;;;;;;3.33;3.03;;;;;;;11.98;48.77;96702.28;5093770;28;20274;-60
2022/04/11 07:20:26;;;;;;;3.30;3.00;;;;;;;12.02;48.34;96702.81;5093973;28;20202;-60
2022/04/11 07:22:54;;;;;;;3.87;3.53;;;;;;;12.11;47.17;96701.94;5092971;28;20269;-61
2022/04/11 07:25:23;;;;;;;3.50;3.20;;;;;;;12.13;46.04;96705.25;5093320;28;20213;-60
2022/04/11 07:27:49;;;;;;;3.50;3.10;;;;;;;12.40;45.19;96705.16;5093539;28;20596;-61
2022/04/11 07:30:16;;;;;;;4.43;3.30;;;;;;;12.37;46.85;96708.97;5093616;28;20209;-59
2022/04/11 07:32:42;;;;;;;3.70;3.33;;;;;;;12.18;48.23;96708.28;5093937;28;20201;-61
2022/04/11 07:35:09;;;;;;;3.73;3.40;;;;;;;12.34;50.23;96714.56;5093452;28;20197;-60
2022/04/11 07:37:36;;;;;;;4.07;3.40;;;;;;;12.37;48.48;96713.41;5093773;28;20588;-61
2022/04/11 07:40:07;;;;;;;4.07;3.67;;;;;;;12.53;47.11;96710.09;5093345;28;20209;-61
2022/04/11 07:42:34;;;;;;;3.57;3.03;;;;;;;12.53;47.08;96710.94;5092779;28;20669;-60
2022/04/11 07:45:00;;;;;;;7.60;3.40;;;;;;;12.22;46.16;96702.50;5092942;28;20653;-61
2022/04/11 07:47:27;;;;;;;3.93;3.63;;;;;;;12.30;47.57;96707.06;5093542;28;20206;-61
2022/04/11 07:49:54;;;;;;;3.90;3.50;;;;;;;12.26;46.30;96705.69;5110962;28;20205;-61
2022/04/11 07:52:21;;;;;;;3.07;2.87;;;;;;;12.32;47.40;96699.81;5116269;28;20204;-61
2022/04/11 07:54:48;;;;;;;3.50;3.17;;;;;;;12.00;46.72;96688.88;5111389;28;20174;-61
2022/04/11 07:57:16;;;;;;;3.63;3.37;;;;;;;12.26;45.83;96695.09;5107019;28;20594;-61
2022/04/11 07:59:42;;;;;;;3.53;3.10;;;;;;;12.09;44.58;96690.63;5098536;28;20221;-60
2022/04/11 08:02:09;;;;;;;3.67;3.10;;;;;;;12.02;47.97;96687.75;5096516;28;20221;-59
2022/04/11 08:04:35;;;;;;;3.80;3.50;;;;;;;11.81;46.61;96682.72;5093769;28;21345;-60
2022/04/11 08:07:02;;;;;;;4.10;3.70;;;;;;;11.66;46.74;96686.84;5093573;28;20523;-60
2022/04/11 08:09:29;;;;;;;3.67;3.37;;;;;;;11.69;46.12;96686.53;5092515;28;20658;-61
2022/04/11 08:11:55;;;;;;;3.53;3.17;;;;;;;11.96;48.22;96689.19;5093194;28;20643;-60
2022/04/11 08:14:23;;;;;;;4.10;3.10;;;;;;;11.81;47.04;96677.44;5092888;28;20205;-60
2022/04/11 08:16:50;;;;;;;3.77;3.47;;;;;;;11.96;46.55;96681.25;5092735;28;20634;-60
2022/04/11 08:19:18;;;;;;;3.50;3.20;;;;;;;12.32;48.42;96678.59;5092601;28;20210;-60
2022/04/11 08:21:44;;;;;;;3.00;2.80;;;;;;;12.00;44.00;96671.19;5092763;28;20202;-60
2022/04/11 08:24:10;;;;;;;3.50;3.20;;;;;;;12.12;47.71;96672.59;5092458;28;20202;-61
2022/04/11 08:26:37;;;;;;;3.27;3.07;;;;;;;12.12;43.78;96677.06;5092991;28;20215;-61
2022/04/11 08:29:04;;;;;;;7.77;3.23;;;;;;;12.36;46.14;96669.34;5092843;28;20220;-61
2022/04/11 08:31:32;;;;;;;3.37;2.90;;;;;;;12.72;46.53;96672.75;5092910;28;20202;-60
2022/04/11 08:33:59;;;;;;;3.00;2.50;;;;;;;12.71;45.53;96668.44;5092448;28;20588;-60
2022/04/11 08:36:25;;;;;;;2.80;2.60;;;;;;;12.73;45.11;96667.28;5091992;28;20202;-60
2022/04/11 08:38:52;;;;;;;3.27;2.97;;;;;;;12.79;41.87;96669.31;5092325;28;20509;-61
2022/04/11 08:41:19;;;;;;;4.33;2.93;;;;;;;12.95;44.02;96679.22;5093010;28;20220;-61
2022/04/11 08:43:46;;;;;;;2.93;2.73;;;;;;;13.08;43.72;96666.34;5092566;28;20226;-61
2022/04/11 08:46:17;;;;;;;3.53;3.20;;;;;;;12.97;43.74;96669.25;5092966;28;20209;-59
2022/04/11 08:48:45;;;;;;;3.47;3.13;;;;;;;13.64;43.42;96660.47;5093017;28;20306;-60
2022/04/11 08:51:11;;;;;;;4.87;2.83;;;;;;;13.74;42.14;96655.03;5093898;28;20202;-61
2022/04/11 08:53:39;;;;;;;3.17;2.97;;;;;;;14.02;44.77;96660.91;5093243;28;20210;-60
2022/04/11 08:56:06;;;;;;;3.00;2.80;;;;;;;13.82;42.79;96645.22;5092673;28;20245;-60
2022/04/11 08:58:32;;;;;;;4.90;3.20;;;;;;;14.42;42.98;96645.00;5093810;28;20198;-60
2022/04/11 09:01:00;;;;;;;3.70;3.10;;;;;;;14.08;41.13;96655.75;5097063;28;20210;-60
2022/04/11 09:03:27;;;;;;;3.87;3.00;;;;;;;14.60;42.03;96650.97;5093912;28;20233;-60
2022/04/11 09:06:06;;;;;;;2.87;2.67;;;;;;;15.19;41.78;96656.88;5096304;28;20202;-60
2022/04/11 09:08:43;;;;;;;4.10;2.70;;;;;;;14.99;37.47;96651.06;5093628;28;20313;-60
2022/04/11 09:11:10;;;;;;;3.83;2.90;;;;;;;15.29;38.81;96653.00;5106817;28;20194;-60
2022/04/11 09:13:51;;;;;;;2.70;2.50;;;;;;;15.45;36.56;96660.09;5094247;28;20190;-60
2022/04/11 09:16:18;;;;;;;3.27;2.97;;;;;;;15.54;39.22;96652.94;5092416;28;20214;-59
2022/04/11 09:18:49;;;;;;;7.43;3.00;;;;;;;15.37;38.87;96658.28;5091670;28;20216;-60
2022/04/11 09:21:18;;;;;;;3.00;2.80;;;;;;;16.28;37.74;96655.81;5091565;28;20202;-61
2022/04/11 09:23:44;;;;;;;2.67;2.47;;;;;;;16.58;36.74;96651.44;5091404;28;20222;-59
2022/04/11 09:26:19;;;;;;;2.67;2.30;;;;;;;16.32;37.79;96648.28;5091433;28;20653;-60
2022/04/11 09:28:59;;;;;;;3.33;2.50;;;;;;;16.26;37.35;96641.81;5091815;28;20231;-61
2022/04/11 09:31:25;;;;;;;2.33;2.13;;;;;;;16.65;35.01;96639.03;5091670;28;20189;-61
2022/04/11 09:33:52;;;;;;;2.70;2.50;;;;;;;16.29;35.70;96640.66;5090505;28;20542;-61
2022/04/11 09:36:20;;;;;;;3.50;2.70;;;;;;;16.35;35.84;96639.94;5090827;28;20519;-60
2022/04/11 09:38:59;;;;;;;3.67;2.85;;;;;;;16.38;36.48;96640.41;5091176;28;20208;-61
2022/04/11 09:41:29;;;;;;;2.72;2.53;;;;;;;15.96;35.52;96628.53;5091693;28;20222;-61
2022/04/11 09:43:56;;;;;;;3.55;2.30;;;;;;;16.18;35.30;96633.88;5092671;28;20226;-59
2022/04/11 09:46:23;;;;;;;2.17;2.08;;;;;;;16.13;35.25;96630.06;5091181;28;20535;-61
2022/04/11 09:48:52;;;;;;;3.78;2.80;;;;;;;16.57;36.13;96622.25;5091432;28;20201;-61
2022/04/11 09:51:20;;;;;;;2.80;2.60;;;;;;;16.91;34.67;96625.25;5115361;27;20271;-60
2022/04/11 09:53:47;;;;;;;2.90;2.72;;;;;;;16.97;36.30;96621.84;5091061;28;20210;-59
2022/04/11 09:56:13;;;;;;;10.90;9.82;;;;;;;17.64;34.78;96611.88;5091035;28;20225;-62
2022/04/11 09:58:43;;;;;;;2.88;2.35;;;;;;;17.28;35.22;96621.69;5090478;28;20280;-61
2022/04/11 10:01:11;;;;;;;3.70;2.47;;;;;;;16.87;35.73;96613.28;5090158;28;20210;-61
2022/04/11 10:03:37;;;;;;;3.17;2.50;;;;;;;17.01;36.36;96611.63;5090244;28;20217;-61
2022/04/11 10:06:07;;;;;;;3.35;2.63;;;;;;;16.89;35.78;96613.94;5091142;28;20217;-60
2022/04/11 10:08:35;;;;;;;3.22;2.70;;;;;;;17.64;34.18;96609.22;5090292;28;20286;-59
2022/04/11 10:11:04;;;;;;;2.83;2.60;;;;;;;17.74;34.68;96607.09;5111504;28;20198;-58
2022/04/11 10:13:31;;;;;;;2.78;2.50;;;;;;;17.84;33.50;96607.63;5115299;28;20197;-57
2022/04/11 10:15:59;;;;;;;3.00;2.67;;;;;;;17.57;35.06;96605.63;5115336;28;20197;-58
2022/04/11 10:18:30;;;;;;;2.95;2.70;;;;;;;18.06;36.62;96605.78;5100810;28;20205;-58
2022/04/11 10:20:58;;;;;;;2.75;2.40;;;;;;;18.32;36.29;96594.50;5091206;28;20202;-60
2022/04/11 10:23:31;;;;;;;3.10;2.85;;;;;;;17.77;34.23;96596.00;5092483;28;20229;-59
2022/04/11 10:26:02;;;;;;;3.60;2.60;;;;;;;18.41;34.63;96593.34;5091123;28;20201;-61
2022/04/11 10:28:29;;;;;;;3.58;2.38;;;;;;;18.79;33.71;96592.03;5091732;28;20194;-60
2022/04/11 10:31:10;;;;;;;2.70;2.50;;;;;;;18.48;34.45;96580.84;5091383;28;20531;-59
2022/04/11 10:33:44;;;;;;;4.40;2.58;;;;;;;18.40;33.67;96570.28;5092118;28;20734;-59
2022/04/11 10:36:35;;;;;;;4.50;2.20;;;;;;;18.16;34.91;96573.34;5092116;28;20216;-59
2022/04/11 10:39:26;;;;;;;5.32;2.25;;;;;;;17.92;32.68;96575.38;5087790;28;20649;-60
2022/04/11 10:42:13;;;;;;;4.10;2.10;;;;;;;17.61;32.60;96572.16;5091510;28;20209;-58
2022/04/11 10:44:41;;;;;;;3.30;2.00;;;;;;;18.47;34.57;96565.78;5092925;28;20194;-59
2022/04/11 10:47:34;;;;;;;2.05;1.95;;;;;;;18.16;33.12;96568.00;5103143;28;20208;-60
2022/04/11 10:50:21;;;;;;;1.83;1.73;;;;;;;18.62;33.79;96555.84;5102723;28;20276;-58
2022/04/11 10:52:52;;;;;;;2.13;1.90;;;;;;;18.62;33.16;96558.53;5103935;28;20205;-59
2022/04/11 10:55:22;;;;;;;1.85;1.73;;;;;;;18.97;31.11;96555.88;5101155;28;20214;-58
2022/04/11 10:57:51;;;;;;;3.20;1.80;;;;;;;19.03;27.93;96550.53;5097625;28;20202;-60
2022/04/11 11:00:19;;;;;;;2.63;1.80;;;;;;;19.25;29.95;96538.69;5099456;28;20611;-59
2022/04/11 11:03:09;;;;;;;3.33;1.52;;;;;;;19.62;31.47;96545.50;5103805;28;20217;-59
2022/04/11 11:05:38;;;;;;;3.50;1.98;;;;;;;19.30;33.56;96538.13;5100675;28;20237;-61
2022/04/11 11:08:27;;;;;;;3.50;1.85;;;;;;;20.09;32.12;96541.03;5100413;28;20330;-62
2022/04/11 11:10:55;;;;;;;1.48;1.38;;;;;;;19.58;30.16;96544.25;5099729;28;20213;-60
2022/04/11 11:13:32;;;;;;;2.85;1.27;;;;;;;19.06;26.53;96527.91;5107687;28;20208;-59
2022/04/11 11:15:59;;;;;;;2.13;1.00;;;;;;;19.21;28.86;96518.69;5118082;28;20205;-60
2022/04/11 11:18:26;;;;;;;1.85;1.20;;;;;;;19.06;27.71;96517.97;5108411;28;20202;-60
2022/04/11 11:20:56;;;;;;;2.10;1.17;;;;;;;19.23;27.97;96513.13;5098640;28;20296;-59
2022/04/11 11:23:25;;;;;;;1.55;1.40;;;;;;;19.13;28.13;96520.72;5100554;28;20217;-60
2022/04/11 11:25:53;;;;;;;1.45;1.08;;;;;;;19.33;28.75;96518.94;5096322;28;20714;-59
2022/04/11 11:28:22;;;;;;;1.13;0.90;;;;;;;19.91;29.44;96511.28;5094431;28;20198;-59
2022/04/11 11:30:50;;;;;;;1.80;1.38;;;;;;;19.20;29.37;96508.97;5093963;28;20536;-61
2022/04/11 11:33:17;;;;;;;1.30;1.20;;;;;;;19.52;30.70;96504.78;5093405;28;20259;-60
2022/04/11 11:35:51;;;;;;;3.15;1.20;;;;;;;18.72;27.29;96500.09;5094119;28;20668;-59
2022/04/11 11:38:22;;;;;;;2.25;1.42;;;;;;;18.93;29.46;96495.66;5093883;28;20208;-62
2022/04/11 11:40:55;;;;;;;1.15;1.05;;;;;;;19.31;28.41;96495.00;5093737;28;20226;-60